createdAt,value
2023-03-22T00:01:11.706Z,5.97
2023-03-22T00:03:39.096Z,12.50
2023-03-22T00:06:06.391Z,8.32
2023-03-22T00:08:33.583Z,5.68
2023-03-22T00:11:01.345Z,9.23
2023-03-22T00:13:28.529Z,9.68
2023-03-22T00:15:57.703Z,7.80
2023-03-22T00:18:26.598Z,7.20
2023-03-22T00:20:54.807Z,6.38
2023-03-22T00:23:22.722Z,7.05
2023-03-22T00:25:50.115Z,7.03
2023-03-22T00:28:17.539Z,6.72
2023-03-22T00:30:51.791Z,4.50
2023-03-22T00:33:19.051Z,7.57
2023-03-22T00:35:50.407Z,8.07
2023-03-22T00:38:17.547Z,3.60
2023-03-22T00:40:44.731Z,6.90
2023-03-22T00:43:11.981Z,3.65
2023-03-22T00:45:40.980Z,7.15
2023-03-22T00:48:09.654Z,6.07
2023-03-22T00:50:37.521Z,5.53
2023-03-22T00:53:04.983Z,4.25
2023-03-22T00:55:32.514Z,7.30
2023-03-22T00:57:59.787Z,9.68
2023-03-22T01:00:27.268Z,4.35
2023-03-22T01:02:59.635Z,5.93
2023-03-22T01:05:28.434Z,4.38
2023-03-22T01:07:55.761Z,5.88
2023-03-22T01:10:23.827Z,5.18
2023-03-22T01:12:51.662Z,11.07
2023-03-22T01:15:18.907Z,9.68
2023-03-22T01:17:46.071Z,4.40
2023-03-22T01:20:13.499Z,5.70
2023-03-22T01:22:41.234Z,4.13
2023-03-22T01:25:08.748Z,8.90
2023-03-22T01:27:35.968Z,8.05
2023-03-22T01:30:03.596Z,9.38
2023-03-22T01:32:30.946Z,5.40
2023-03-22T01:34:58.089Z,8.07
2023-03-22T01:37:27.685Z,5.88
2023-03-22T01:39:57.746Z,7.68
2023-03-22T01:42:25.738Z,8.65
2023-03-22T01:45:31.707Z,7.78
2023-03-22T01:48:01.168Z,11.10
2023-03-22T01:50:28.522Z,7.05
2023-03-22T01:52:57.445Z,6.18
2023-03-22T01:55:26.220Z,5.47
2023-03-22T01:57:54.137Z,6.07
2023-03-22T02:00:21.476Z,8.43
2023-03-22T02:02:51.036Z,8.15
2023-03-22T02:05:19.112Z,6.80
2023-03-22T02:07:46.875Z,8.07
2023-03-22T02:10:14.617Z,10.20
2023-03-22T02:13:14.554Z,6.03
2023-03-22T02:16:00.745Z,9.75
2023-03-22T02:18:28.117Z,8.20
2023-03-22T02:20:58.359Z,6.38
2023-03-22T02:23:35.113Z,8.95
2023-03-22T02:26:19.134Z,7.93
2023-03-22T02:29:04.948Z,6.57
2023-03-22T02:31:51.043Z,5.95
2023-03-22T02:34:30.978Z,8.15
2023-03-22T02:37:13.356Z,11.43
2023-03-22T02:39:46.730Z,8.30
2023-03-22T02:42:21.823Z,10.25
2023-03-22T02:44:56.077Z,12.02
2023-03-22T02:47:25.421Z,9.65
2023-03-22T02:49:59.785Z,8.38
2023-03-22T02:52:39.227Z,9.68
2023-03-22T02:55:22.182Z,10.93
2023-03-22T02:57:51.078Z,10.63
2023-03-22T03:00:19.361Z,8.73
2023-03-22T03:02:49.917Z,7.20
2023-03-22T03:05:18.190Z,9.77
2023-03-22T03:07:47.723Z,13.80
2023-03-22T03:10:17.018Z,14.05
2023-03-22T03:12:44.813Z,13.65
2023-03-22T03:15:15.776Z,10.38
2023-03-22T03:17:54.889Z,11.98
2023-03-22T03:20:29.986Z,13.45
2023-03-22T03:23:15.909Z,11.15
2023-03-22T03:26:01.629Z,10.75
2023-03-22T03:28:44.931Z,10.18
2023-03-22T03:31:12.128Z,11.85
2023-03-22T03:33:43.146Z,11.90
2023-03-22T03:36:11.353Z,13.27
2023-03-22T03:38:44.628Z,12.80
2023-03-22T03:41:13.474Z,13.90
2023-03-22T03:43:41.393Z,9.80
2023-03-22T03:46:08.918Z,11.02
2023-03-22T03:48:38.157Z,14.95
2023-03-22T03:51:05.777Z,14.45
2023-03-22T03:53:32.945Z,14.18
2023-03-22T03:56:01.700Z,12.95
2023-03-22T03:58:30.798Z,17.30
2023-03-22T04:00:58.076Z,13.65
2023-03-22T04:03:25.306Z,17.83
2023-03-22T04:05:52.870Z,11.82
2023-03-22T04:08:20.044Z,15.00
2023-03-22T04:10:51.121Z,12.40
2023-03-22T04:13:21.448Z,16.00
2023-03-22T04:15:52.715Z,24.38
2023-03-22T04:18:21.266Z,24.23
2023-03-22T04:20:49.640Z,15.27
2023-03-22T04:23:16.924Z,18.05
2023-03-22T04:25:49.985Z,17.67
2023-03-22T04:28:19.819Z,19.63
2023-03-22T04:30:52.535Z,23.40
2023-03-22T04:33:22.648Z,16.65
2023-03-22T04:35:50.494Z,13.55
2023-03-22T04:38:18.336Z,18.02
2023-03-22T04:40:46.853Z,19.30
2023-03-22T04:43:15.772Z,20.20
2023-03-22T04:45:44.040Z,22.48
2023-03-22T04:48:11.442Z,26.70
2023-03-22T04:50:40.340Z,23.50
2023-03-22T04:53:08.414Z,21.73
2023-03-22T04:55:35.662Z,21.92
2023-03-22T04:58:03.056Z,21.67
2023-03-22T05:00:30.432Z,21.63
2023-03-22T05:02:58.161Z,18.95
2023-03-22T05:05:25.470Z,16.20
2023-03-22T05:07:52.680Z,20.42
2023-03-22T05:10:19.962Z,15.45
2023-03-22T05:12:47.208Z,15.82
2023-03-22T05:15:14.684Z,19.92
2023-03-22T05:17:41.884Z,15.02
2023-03-22T05:20:10.332Z,17.95
2023-03-22T05:22:41.292Z,18.85
2023-03-22T05:25:09.510Z,19.67
2023-03-22T05:27:38.922Z,19.48
2023-03-22T05:30:06.722Z,22.23
2023-03-22T05:32:33.911Z,19.60
2023-03-22T05:35:04.776Z,62.85
2023-03-22T05:37:32.211Z,58.13
2023-03-22T05:39:59.461Z,67.55
2023-03-22T05:42:27.041Z,84.38
2023-03-22T05:44:54.283Z,79.57
2023-03-22T05:47:22.108Z,83.38
2023-03-22T05:49:49.262Z,64.43
2023-03-22T05:52:16.450Z,45.97
2023-03-22T05:54:43.621Z,43.08
2023-03-22T05:57:10.964Z,25.27
2023-03-22T05:59:38.152Z,26.83
2023-03-22T06:02:05.630Z,34.42
2023-03-22T06:04:32.871Z,43.33
2023-03-22T06:07:00.229Z,27.50
2023-03-22T06:09:27.426Z,29.23
2023-03-22T06:11:54.604Z,27.30
2023-03-22T06:14:21.736Z,29.65
2023-03-22T06:16:48.970Z,45.97
2023-03-22T06:19:16.157Z,24.05
2023-03-22T06:21:43.422Z,37.28
2023-03-22T06:24:10.847Z,35.58
2023-03-22T06:26:38.001Z,29.33
2023-03-22T06:29:05.221Z,51.72
2023-03-22T06:31:32.430Z,62.55
2023-03-22T06:33:59.659Z,54.60
2023-03-22T06:36:26.904Z,57.65
2023-03-22T06:38:54.129Z,72.20
2023-03-22T06:41:21.427Z,86.78
2023-03-22T06:43:48.576Z,83.88
2023-03-22T06:46:15.887Z,46.15
2023-03-22T06:48:43.188Z,35.63
2023-03-22T06:51:10.379Z,43.40
2023-03-22T06:53:37.574Z,35.33
2023-03-22T06:56:05.161Z,34.40
2023-03-22T06:58:32.325Z,24.80
2023-03-22T07:00:59.575Z,19.65
2023-03-22T07:03:26.743Z,16.42
2023-03-22T07:05:53.969Z,19.42
2023-03-22T07:08:21.074Z,15.02
2023-03-22T07:10:51.008Z,12.57
2023-03-22T07:13:18.184Z,14.77
2023-03-22T07:15:45.456Z,15.55
2023-03-22T07:18:12.996Z,10.27
2023-03-22T07:20:41.903Z,13.85
2023-03-22T07:23:10.872Z,13.95
2023-03-22T07:25:38.316Z,10.45
2023-03-22T07:28:06.958Z,15.07
2023-03-22T07:30:37.893Z,10.52
2023-03-22T07:33:06.602Z,11.23
2023-03-22T07:35:33.819Z,8.02
2023-03-22T07:38:01.221Z,13.95
2023-03-22T07:40:28.693Z,6.63
2023-03-22T07:42:56.073Z,7.53
2023-03-22T07:45:23.734Z,6.53
2023-03-22T07:47:51.198Z,6.43
2023-03-22T07:50:18.815Z,7.90
2023-03-22T07:52:46.098Z,8.00
2023-03-22T07:55:14.446Z,4.45
2023-03-22T07:57:42.498Z,6.38
2023-03-22T08:00:10.541Z,6.03
2023-03-22T08:02:38.692Z,5.45
2023-03-22T08:05:07.329Z,5.10
2023-03-22T08:07:34.631Z,7.50
2023-03-22T08:10:02.045Z,6.03
2023-03-22T08:12:29.295Z,4.57
2023-03-22T08:14:56.523Z,8.18
2023-03-22T08:17:23.743Z,4.78
2023-03-22T08:19:50.912Z,5.43
2023-03-22T08:22:18.153Z,3.90
2023-03-22T08:24:45.581Z,4.43
2023-03-22T08:27:14.244Z,4.60
2023-03-22T08:29:41.507Z,4.68
2023-03-22T08:32:08.696Z,3.78
2023-03-22T08:34:39.606Z,4.20
2023-03-22T08:37:07.198Z,6.10
2023-03-22T08:39:34.370Z,4.63
2023-03-22T08:42:01.697Z,5.25
2023-03-22T08:44:29.197Z,6.03
2023-03-22T08:46:56.607Z,5.88
2023-03-22T08:49:23.903Z,6.35
2023-03-22T08:51:51.370Z,5.05
2023-03-22T08:54:18.587Z,3.72
2023-03-22T08:56:45.759Z,3.90
2023-03-22T08:59:12.999Z,3.33
2023-03-22T09:01:40.302Z,12.77
2023-03-22T09:04:10.207Z,4.78
2023-03-22T09:06:38.024Z,7.28
2023-03-22T09:09:05.267Z,6.82
2023-03-22T09:11:32.452Z,4.55
2023-03-22T09:13:59.580Z,3.40
2023-03-22T09:16:26.765Z,4.13
2023-03-22T09:18:54.061Z,5.05
2023-03-22T09:21:21.924Z,31.50
2023-03-22T09:23:50.406Z,3.03
2023-03-22T09:26:17.907Z,2.97
2023-03-22T09:28:46.766Z,5.45
2023-03-22T09:31:14.453Z,8.80
2023-03-22T09:33:41.742Z,4.63
2023-03-22T09:36:09.717Z,7.20
2023-03-22T09:38:37.211Z,8.27
2023-03-22T09:41:06.461Z,3.45
2023-03-22T09:43:35.346Z,6.15
2023-03-22T09:46:02.782Z,3.35
2023-03-22T09:48:32.792Z,3.78
2023-03-22T09:51:01.067Z,2.63
2023-03-22T09:53:29.098Z,18.45
2023-03-22T09:56:01.332Z,4.78
2023-03-22T09:58:51.858Z,2.45
2023-03-22T10:01:37.476Z,3.45
2023-03-22T10:04:04.861Z,1.85
2023-03-22T10:06:32.432Z,2.75
2023-03-22T10:09:10.118Z,15.07
2023-03-22T10:11:45.738Z,2.50
2023-03-22T10:14:25.680Z,5.00
2023-03-22T10:16:55.387Z,4.85
2023-03-22T10:19:41.045Z,4.50
2023-03-22T10:22:10.805Z,2.70
2023-03-22T10:24:39.629Z,5.28
2023-03-22T10:27:15.460Z,6.13
2023-03-22T10:30:02.940Z,5.55
2023-03-22T10:32:32.608Z,2.50
2023-03-22T10:34:59.788Z,5.78
2023-03-22T10:37:35.523Z,4.10
2023-03-22T10:40:07.074Z,6.30
2023-03-22T10:42:37.057Z,5.45
2023-03-22T10:45:06.814Z,2.65
2023-03-22T10:47:36.143Z,3.03
2023-03-22T10:50:10.106Z,3.08
2023-03-22T10:52:41.127Z,1.60
2023-03-22T10:55:13.417Z,2.10
2023-03-22T10:57:43.085Z,1.27
2023-03-22T11:00:12.627Z,3.83
2023-03-22T11:02:53.324Z,1.63
2023-03-22T11:05:28.358Z,2.50
2023-03-22T11:07:58.188Z,2.47
2023-03-22T11:10:30.031Z,1.13
2023-03-22T11:13:09.658Z,1.02
2023-03-22T11:15:39.647Z,2.05
2023-03-22T11:18:08.901Z,0.50
2023-03-22T11:20:36.215Z,2.97
2023-03-22T11:23:06.974Z,1.65
2023-03-22T11:25:36.474Z,2.05
2023-03-22T11:28:16.994Z,1.45
2023-03-22T11:30:58.724Z,0.93
2023-03-22T11:33:26.147Z,1.40
2023-03-22T11:35:57.832Z,3.03
2023-03-22T11:38:25.734Z,6.60
2023-03-22T11:40:55.909Z,1.85
2023-03-22T11:43:25.187Z,3.78
2023-03-22T11:45:56.040Z,8.10
2023-03-22T11:48:24.685Z,9.32
2023-03-22T11:50:54.197Z,4.78
2023-03-22T11:53:26.280Z,2.45
2023-03-22T11:55:54.964Z,11.35
2023-03-22T11:58:26.419Z,2.45
2023-03-22T12:00:54.718Z,4.38
2023-03-22T12:03:24.641Z,2.45
2023-03-22T12:05:52.508Z,1.85
2023-03-22T12:08:24.417Z,3.60
2023-03-22T12:10:54.744Z,2.30
2023-03-22T12:13:24.334Z,1.15
2023-03-22T12:15:53.955Z,2.50
2023-03-22T12:18:27.534Z,3.97
2023-03-22T12:23:23.354Z,2.05
2023-03-22T12:26:01.102Z,1.13
2023-03-22T12:28:32.108Z,3.10
2023-03-22T12:30:59.908Z,2.35
2023-03-22T12:33:29.144Z,3.10
2023-03-22T12:35:57.773Z,1.00
2023-03-22T12:38:42.032Z,2.42
2023-03-22T12:41:12.124Z,0.90
2023-03-22T12:43:49.036Z,1.02
2023-03-22T12:46:21.037Z,3.17
2023-03-22T12:49:06.468Z,2.33
2023-03-22T12:51:33.817Z,4.32
2023-03-22T12:54:01.696Z,2.65
2023-03-22T12:56:37.308Z,6.10
2023-03-22T12:59:06.476Z,2.10
2023-03-22T13:01:33.671Z,4.78
2023-03-22T13:04:01.010Z,4.55
2023-03-22T13:06:46.435Z,2.67
2023-03-22T13:09:28.906Z,1.45
2023-03-22T13:12:15.013Z,31.52
2023-03-22T13:14:51.313Z,0.65
2023-03-22T13:17:24.629Z,3.83
2023-03-22T13:19:59.333Z,4.68
2023-03-22T13:22:38.711Z,0.65
2023-03-22T13:25:07.168Z,2.42
2023-03-22T13:27:38.267Z,0.73
2023-03-22T13:30:10.502Z,1.40
2023-03-22T13:32:37.849Z,1.55
2023-03-22T13:35:05.935Z,2.00
2023-03-22T13:37:37.214Z,2.63
2023-03-22T13:40:15.151Z,2.33
2023-03-22T13:42:42.460Z,1.75
2023-03-22T13:45:18.570Z,5.60
2023-03-22T13:47:47.156Z,2.60
2023-03-22T13:50:14.446Z,5.03
2023-03-22T13:52:43.425Z,1.15
2023-03-22T13:55:18.482Z,3.92
2023-03-22T13:57:48.259Z,8.10
2023-03-22T14:00:31.345Z,0.68
2023-03-22T14:03:04.125Z,1.92
2023-03-22T14:05:32.652Z,1.35
2023-03-22T14:08:00.762Z,0.73
2023-03-22T14:10:40.777Z,2.63
2023-03-22T14:13:20.280Z,1.63
2023-03-22T14:15:51.952Z,3.35
2023-03-22T14:18:27.341Z,1.77
2023-03-22T14:20:56.466Z,4.90
